createdAt,value
2022-12-04T00:00:56.366Z,3.47
2022-12-04T00:01:59.056Z,3.55
2022-12-04T00:03:01.897Z,3.53
2022-12-04T00:04:05.028Z,3.51
2022-12-04T00:05:10.166Z,3.48
2022-12-04T00:06:18.800Z,3.45
2022-12-04T00:07:21.582Z,3.43
2022-12-04T00:08:24.485Z,3.53
2022-12-04T00:09:27.166Z,3.59
2022-12-04T00:10:29.819Z,3.57
2022-12-04T00:11:33.601Z,3.52
2022-12-04T00:12:36.275Z,3.53
2022-12-04T00:13:39.605Z,3.52
2022-12-04T00:15:16.627Z,3.48
2022-12-04T00:16:10.097Z,3.44
2022-12-04T00:17:12.941Z,3.51
2022-12-04T00:18:15.638Z,3.46
2022-12-04T00:19:18.415Z,3.43
2022-12-04T00:20:21.340Z,3.49
2022-12-04T00:21:25.118Z,3.44
2022-12-04T00:22:27.874Z,3.45
2022-12-04T00:23:30.680Z,3.49
2022-12-04T00:24:34.574Z,3.48
2022-12-04T00:25:41.164Z,3.51
2022-12-04T00:26:44.453Z,3.51
2022-12-04T00:27:47.146Z,3.47
2022-12-04T00:28:50.165Z,3.44
2022-12-04T00:29:53.347Z,3.44
2022-12-04T00:30:56.657Z,3.52
2022-12-04T00:31:59.435Z,3.49
2022-12-04T00:33:02.102Z,3.49
2022-12-04T00:34:08.131Z,3.42
2022-12-04T00:35:11.174Z,3.37
2022-12-04T00:36:17.025Z,3.44
2022-12-04T00:37:19.712Z,3.42
2022-12-04T00:38:22.386Z,3.44
2022-12-04T00:39:24.956Z,3.47
2022-12-04T00:40:27.587Z,3.47
2022-12-04T00:41:32.697Z,3.53
2022-12-04T00:42:35.450Z,3.57
2022-12-04T00:43:38.626Z,3.50
2022-12-04T00:44:41.532Z,3.44
2022-12-04T00:45:44.205Z,3.39
2022-12-04T00:46:47.140Z,3.40
2022-12-04T00:47:49.864Z,3.37
2022-12-04T00:48:52.964Z,3.34
2022-12-04T00:49:55.865Z,3.27
2022-12-04T00:51:07.347Z,3.25
2022-12-04T00:52:09.947Z,3.34
2022-12-04T00:53:13.451Z,3.30
2022-12-04T00:54:16.181Z,3.22
2022-12-04T00:55:18.871Z,3.18
2022-12-04T00:56:27.288Z,3.21
2022-12-04T00:57:30.362Z,3.18
2022-12-04T00:58:33.892Z,3.15
2022-12-04T00:59:38.052Z,3.09
2022-12-04T01:00:42.722Z,3.04
2022-12-04T01:01:45.549Z,3.03
2022-12-04T01:02:48.442Z,3.00
2022-12-04T01:03:51.771Z,3.02
2022-12-04T01:04:54.567Z,3.06
2022-12-04T01:05:57.419Z,3.13
2022-12-04T01:07:04.951Z,3.21
2022-12-04T01:08:08.836Z,3.21
2022-12-04T01:09:11.573Z,3.21
2022-12-04T01:10:14.400Z,3.17
2022-12-04T01:11:19.689Z,3.13
2022-12-04T01:12:22.433Z,3.10
2022-12-04T01:13:26.601Z,3.02
2022-12-04T01:14:29.295Z,3.06
2022-12-04T01:15:32.051Z,3.19
2022-12-04T01:16:38.016Z,3.13
2022-12-04T01:17:40.888Z,3.06
2022-12-04T01:18:43.664Z,3.06
2022-12-04T01:19:46.482Z,3.02
2022-12-04T01:20:51.393Z,3.01
2022-12-04T01:21:54.192Z,3.01
2022-12-04T01:22:57.027Z,3.01
2022-12-04T01:24:00.128Z,2.95
2022-12-04T01:25:03.338Z,2.94
2022-12-04T01:26:06.178Z,2.92
2022-12-04T01:27:09.000Z,2.95
2022-12-04T01:28:12.168Z,2.94
2022-12-04T01:29:15.109Z,2.98
2022-12-04T01:30:17.832Z,2.96
2022-12-04T01:31:23.160Z,2.96
2022-12-04T01:32:26.326Z,2.99
2022-12-04T01:33:30.131Z,2.97
2022-12-04T01:34:32.786Z,3.01
2022-12-04T01:35:35.657Z,2.99
2022-12-04T01:36:38.298Z,2.97
2022-12-04T01:37:40.991Z,2.96
2022-12-04T01:38:44.201Z,2.98
2022-12-04T01:39:46.879Z,2.98
2022-12-04T01:40:49.607Z,3.00
2022-12-04T01:41:52.312Z,3.05
2022-12-04T01:42:55.071Z,3.06
2022-12-04T01:44:14.109Z,3.07
2022-12-04T01:45:39.261Z,3.23
2022-12-04T01:46:44.011Z,3.30
2022-12-04T01:47:47.529Z,3.29
2022-12-04T01:48:53.921Z,3.27
2022-12-04T01:50:00.024Z,3.30
2022-12-04T01:51:29.187Z,3.28
2022-12-04T01:52:32.132Z,3.29
2022-12-04T01:53:40.191Z,3.31
2022-12-04T01:54:46.826Z,3.34
2022-12-04T01:55:49.918Z,3.32
2022-12-04T01:56:57.614Z,3.38
2022-12-04T01:58:02.507Z,3.41
2022-12-04T01:59:08.646Z,3.52
2022-12-04T02:00:14.692Z,3.62
2022-12-04T02:01:17.422Z,3.59
2022-12-04T02:02:26.456Z,3.65
2022-12-04T02:03:29.719Z,3.72
2022-12-04T02:04:34.784Z,3.69
2022-12-04T02:05:37.392Z,3.75
2022-12-04T02:06:40.460Z,3.79
2022-12-04T02:07:47.219Z,3.83
2022-12-04T02:08:50.219Z,3.74
2022-12-04T02:09:56.456Z,3.66
2022-12-04T02:11:25.808Z,3.62
2022-12-04T02:12:37.242Z,3.70
2022-12-04T02:13:52.853Z,3.67
2022-12-04T02:15:04.297Z,3.61
2022-12-04T02:16:31.378Z,3.55
2022-12-04T02:18:00.221Z,3.51
2022-12-04T02:19:28.913Z,3.51
2022-12-04T02:20:50.376Z,3.47
2022-12-04T02:21:57.410Z,3.59
2022-12-04T02:23:29.974Z,3.66
2022-12-04T02:24:46.832Z,3.76
2022-12-04T02:26:14.016Z,3.75
2022-12-04T02:27:41.533Z,3.69
2022-12-04T02:28:56.613Z,3.73
2022-12-04T02:30:17.685Z,3.73
2022-12-04T02:32:00.368Z,3.65
2022-12-04T02:33:11.887Z,3.76
2022-12-04T02:34:42.290Z,3.72
2022-12-04T02:35:49.460Z,3.78
2022-12-04T02:37:00.577Z,3.84
2022-12-04T02:38:12.210Z,3.80
2022-12-04T02:39:54.594Z,3.77
2022-12-04T02:41:06.209Z,3.74
2022-12-04T02:42:19.660Z,3.68
2022-12-04T02:43:30.773Z,3.63
2022-12-04T02:44:41.570Z,3.53
2022-12-04T02:45:54.965Z,3.54
2022-12-04T02:47:05.535Z,3.54
2022-12-04T02:48:09.248Z,3.60
2022-12-04T02:49:19.970Z,3.53
2022-12-04T02:50:24.609Z,3.47
2022-12-04T02:51:31.437Z,3.40
2022-12-04T02:52:41.246Z,3.34
2022-12-04T02:53:57.608Z,3.33
2022-12-04T02:55:08.621Z,3.37
2022-12-04T02:56:20.058Z,3.42
2022-12-04T02:57:28.215Z,3.36
2022-12-04T02:58:42.647Z,3.27
2022-12-04T02:59:49.086Z,3.51
2022-12-04T03:00:55.038Z,3.50
2022-12-04T03:02:04.254Z,3.38
2022-12-04T03:03:13.454Z,3.36
2022-12-04T03:04:24.691Z,3.34
2022-12-04T03:05:36.409Z,3.32
2022-12-04T03:06:43.289Z,3.26
2022-12-04T03:08:01.075Z,3.16
2022-12-04T03:09:14.808Z,3.16
2022-12-04T03:10:50.208Z,3.18
2022-12-04T03:11:58.287Z,3.13
2022-12-04T03:13:14.631Z,3.13
2022-12-04T03:14:29.511Z,3.13
2022-12-04T03:15:56.519Z,3.14
2022-12-04T03:17:08.670Z,3.06
2022-12-04T03:18:22.413Z,3.08
2022-12-04T03:19:48.960Z,3.10
2022-12-04T03:20:59.629Z,3.08
2022-12-04T03:22:11.024Z,3.05
2022-12-04T03:23:18.962Z,2.99
2022-12-04T03:24:22.053Z,2.91
2022-12-04T03:25:33.426Z,3.01
2022-12-04T03:26:55.085Z,2.95
2022-12-04T03:28:08.298Z,2.91
2022-12-04T03:29:23.944Z,2.90
2022-12-04T03:30:35.623Z,2.96
2022-12-04T03:31:38.121Z,2.90
2022-12-04T03:32:49.675Z,2.97
2022-12-04T03:33:55.432Z,3.00
2022-12-04T03:35:13.434Z,3.00
2022-12-04T03:36:25.393Z,2.95
2022-12-04T03:37:40.387Z,2.97
2022-12-04T03:39:12.066Z,2.92
2022-12-04T03:40:23.982Z,2.95
2022-12-04T03:41:50.031Z,2.94
2022-12-04T03:43:15.826Z,3.06
2022-12-04T03:44:41.804Z,2.97
2022-12-04T03:45:54.338Z,2.87
2022-12-04T03:47:07.102Z,2.90
2022-12-04T03:48:35.761Z,2.84
2022-12-04T03:49:45.940Z,2.92
2022-12-04T03:51:02.477Z,2.85
2022-12-04T03:52:29.419Z,2.81
2022-12-04T03:53:38.153Z,2.81
2022-12-04T03:54:47.013Z,2.76
2022-12-04T03:56:18.054Z,2.74
2022-12-04T03:57:26.093Z,2.80
2022-12-04T03:58:32.732Z,2.78
2022-12-04T03:59:43.298Z,2.73
2022-12-04T04:00:48.231Z,2.82
2022-12-04T04:01:52.513Z,2.76
2022-12-04T04:03:07.476Z,2.79
2022-12-04T04:04:14.824Z,2.82
2022-12-04T04:05:19.370Z,2.70
2022-12-04T04:06:29.415Z,2.62
2022-12-04T04:07:38.824Z,2.57
2022-12-04T04:08:46.319Z,2.52
2022-12-04T04:09:54.868Z,2.53
2022-12-04T04:11:27.848Z,2.53
2022-12-04T04:12:37.164Z,2.47
2022-12-04T04:14:05.481Z,2.48
2022-12-04T04:15:36.966Z,2.46
2022-12-04T04:17:04.002Z,2.62
2022-12-04T04:18:25.515Z,2.56
2022-12-04T04:19:51.098Z,2.70
2022-12-04T04:21:17.976Z,2.59
2022-12-04T04:22:42.454Z,2.51
2022-12-04T04:24:08.891Z,2.51
2022-12-04T04:25:19.520Z,2.41
2022-12-04T04:26:25.707Z,2.37
2022-12-04T04:27:28.575Z,2.37
2022-12-04T04:28:37.484Z,2.36
2022-12-04T04:29:52.086Z,2.46
2022-12-04T04:31:02.402Z,2.43
2022-12-04T04:32:13.804Z,2.54
2022-12-04T04:33:17.331Z,2.55
2022-12-04T04:34:31.746Z,2.56
2022-12-04T04:35:52.973Z,2.51
2022-12-04T04:37:08.952Z,2.47
2022-12-04T04:38:20.398Z,2.49
2022-12-04T04:39:40.401Z,2.50
2022-12-04T04:41:01.470Z,2.44
2022-12-04T04:42:25.079Z,2.46
2022-12-04T04:43:44.727Z,2.45
2022-12-04T04:44:54.729Z,2.53
2022-12-04T04:46:06.570Z,2.50
2022-12-04T04:47:15.388Z,2.46
2022-12-04T04:48:32.137Z,2.52
2022-12-04T04:49:38.779Z,2.44
2022-12-04T04:50:42.655Z,2.43
2022-12-04T04:51:46.586Z,2.36
2022-12-04T04:52:53.978Z,2.38
2022-12-04T04:54:01.063Z,2.42
2022-12-04T04:55:04.936Z,2.38
2022-12-04T04:56:08.460Z,2.31
2022-12-04T04:57:11.256Z,2.44
2022-12-04T04:58:23.741Z,2.44
2022-12-04T04:59:26.988Z,2.39
2022-12-04T05:00:29.759Z,2.52
2022-12-04T05:02:40.668Z,2.42
2022-12-04T05:03:44.163Z,2.46
2022-12-04T05:04:47.033Z,2.45
2022-12-04T05:05:49.744Z,2.36
2022-12-04T05:06:52.559Z,2.33
2022-12-04T05:07:55.680Z,2.32
2022-12-04T05:08:58.675Z,2.42
2022-12-04T05:10:01.735Z,2.36
2022-12-04T05:11:05.722Z,2.28
2022-12-04T05:12:09.194Z,2.30
2022-12-04T05:13:13.364Z,2.40
2022-12-04T05:14:22.884Z,2.46
2022-12-04T05:15:25.699Z,2.44
2022-12-04T05:16:28.700Z,2.46
2022-12-04T05:17:31.798Z,2.52
2022-12-04T05:18:35.746Z,2.50
2022-12-04T05:19:57.582Z,2.55
2022-12-04T05:21:09.388Z,2.56
2022-12-04T05:22:13.476Z,2.48
2022-12-04T05:23:16.358Z,2.53
2022-12-04T05:24:19.186Z,2.51
2022-12-04T05:25:21.969Z,2.51
2022-12-04T05:26:25.167Z,2.60
2022-12-04T05:27:31.688Z,2.60
2022-12-04T05:28:34.554Z,2.57
2022-12-04T05:29:37.894Z,2.61
2022-12-04T05:30:41.336Z,2.61
2022-12-04T05:31:44.595Z,2.64
2022-12-04T05:32:47.471Z,2.71
2022-12-04T05:33:50.272Z,2.72
2022-12-04T05:34:54.492Z,2.67
2022-12-04T05:35:59.169Z,2.64
2022-12-04T05:37:08.411Z,2.59
2022-12-04T05:38:11.616Z,2.64
2022-12-04T05:39:14.537Z,2.63
2022-12-04T05:40:17.518Z,2.61
2022-12-04T05:41:20.387Z,2.60
2022-12-04T05:42:23.298Z,2.73
2022-12-04T05:43:26.726Z,2.72
2022-12-04T05:44:29.586Z,2.68
2022-12-04T05:45:32.652Z,2.73
2022-12-04T05:46:35.593Z,2.71
2022-12-04T05:47:40.893Z,2.72
2022-12-04T05:48:43.691Z,2.73
2022-12-04T05:49:46.863Z,2.70
2022-12-04T05:50:49.693Z,2.65
2022-12-04T05:51:52.454Z,2.73
2022-12-04T05:52:55.335Z,2.77
2022-12-04T05:53:58.210Z,2.71
2022-12-04T05:55:01.095Z,2.74
2022-12-04T05:56:06.268Z,2.68
2022-12-04T05:57:09.428Z,2.71
2022-12-04T05:58:12.277Z,2.69
2022-12-04T05:59:15.723Z,2.74
2022-12-04T06:00:18.685Z,2.72
2022-12-04T06:01:24.124Z,2.71
2022-12-04T06:02:26.883Z,2.70
2022-12-04T06:03:29.970Z,2.74
2022-12-04T06:04:33.093Z,2.75
2022-12-04T06:05:35.933Z,2.76
2022-12-04T06:06:39.382Z,2.72
2022-12-04T06:07:42.405Z,2.79
2022-12-04T06:08:45.614Z,2.78
2022-12-04T06:09:48.455Z,2.79
2022-12-04T06:10:51.298Z,2.77
2022-12-04T06:11:57.939Z,2.72
2022-12-04T06:13:01.188Z,2.71
2022-12-04T06:14:06.652Z,2.84
2022-12-04T06:15:10.014Z,2.91
2022-12-04T06:16:21.746Z,2.85
2022-12-04T06:17:24.859Z,2.81
2022-12-04T06:18:27.732Z,2.76
2022-12-04T06:19:30.495Z,2.80
2022-12-04T06:20:34.602Z,2.81
2022-12-04T06:21:40.100Z,2.74
2022-12-04T06:22:42.915Z,2.75
2022-12-04T06:23:46.093Z,2.89
2022-12-04T06:24:49.014Z,2.92
2022-12-04T06:25:52.014Z,2.89
2022-12-04T06:28:22.294Z,2.82
2022-12-04T06:29:26.012Z,2.88
2022-12-04T06:30:30.656Z,2.87
2022-12-04T06:31:36.431Z,2.83
2022-12-04T06:32:39.292Z,2.97
2022-12-04T06:33:43.094Z,3.00
2022-12-04T06:34:46.228Z,2.94
2022-12-04T06:35:57.571Z,2.95
2022-12-04T06:37:00.299Z,2.91
2022-12-04T06:38:03.173Z,3.05
2022-12-04T06:39:06.106Z,3.11
2022-12-04T06:40:09.755Z,3.18
2022-12-04T06:41:14.533Z,3.17
2022-12-04T06:42:17.765Z,3.17
2022-12-04T06:43:20.563Z,3.26
2022-12-04T06:44:23.392Z,3.26
2022-12-04T06:45:26.228Z,3.31
2022-12-04T06:46:32.541Z,3.25
2022-12-04T06:47:36.498Z,3.35
2022-12-04T06:48:39.933Z,3.36
2022-12-04T06:49:43.953Z,3.37
2022-12-04T06:50:46.698Z,3.39
2022-12-04T06:51:49.513Z,3.39
2022-12-04T06:52:52.196Z,3.46
2022-12-04T06:53:55.060Z,3.43
2022-12-04T06:54:59.280Z,3.39
2022-12-04T06:56:05.495Z,3.49
2022-12-04T06:57:08.673Z,3.56
2022-12-04T06:58:17.697Z,3.59
2022-12-04T06:59:28.016Z,3.63
2022-12-04T07:00:31.318Z,3.61
2022-12-04T07:01:35.249Z,3.64
2022-12-04T07:02:38.500Z,3.59
2022-12-04T07:03:46.333Z,3.62
2022-12-04T07:04:57.357Z,3.56
2022-12-04T07:06:00.030Z,3.53
2022-12-04T07:07:02.978Z,3.54
2022-12-04T07:08:05.977Z,3.59
2022-12-04T07:09:11.409Z,3.56
2022-12-04T07:10:14.194Z,3.70
2022-12-04T07:11:17.851Z,3.74
2022-12-04T07:12:20.832Z,3.76
2022-12-04T07:13:23.602Z,3.68
2022-12-04T07:14:26.652Z,3.75
2022-12-04T07:15:29.707Z,3.76
2022-12-04T07:16:40.021Z,3.80
2022-12-04T07:17:43.934Z,3.81
2022-12-04T07:18:50.498Z,3.83
2022-12-04T07:19:54.072Z,3.91
2022-12-04T07:20:57.166Z,3.93
2022-12-04T07:22:00.321Z,3.87
2022-12-04T07:23:07.214Z,3.93
2022-12-04T07:24:16.368Z,3.96
2022-12-04T07:25:19.332Z,3.97
2022-12-04T07:26:23.343Z,3.96
2022-12-04T07:27:26.122Z,3.97
2022-12-04T07:28:29.135Z,4.01
2022-12-04T07:29:36.029Z,4.01
2022-12-04T07:30:39.366Z,4.05
2022-12-04T07:31:42.231Z,4.01
2022-12-04T07:32:44.974Z,4.01
2022-12-04T07:33:48.736Z,4.05
2022-12-04T07:34:51.734Z,4.07
2022-12-04T07:35:58.967Z,4.09
2022-12-04T07:37:01.918Z,4.17
2022-12-04T07:38:05.216Z,4.09
2022-12-04T07:39:08.324Z,4.10
2022-12-04T07:40:11.736Z,4.14
2022-12-04T07:41:15.376Z,4.12
2022-12-04T07:42:23.826Z,4.19
2022-12-04T07:43:27.495Z,4.14
2022-12-04T07:44:33.544Z,4.10
2022-12-04T07:45:40.908Z,4.08
2022-12-04T07:46:43.755Z,4.16
2022-12-04T07:47:46.748Z,4.18
2022-12-04T07:48:49.681Z,4.23
2022-12-04T07:49:52.731Z,4.29
2022-12-04T07:51:07.648Z,4.34
2022-12-04T07:52:10.488Z,4.29
2022-12-04T07:53:13.695Z,4.26
2022-12-04T07:54:16.674Z,4.30
2022-12-04T07:55:23.137Z,4.28
2022-12-04T07:56:26.347Z,4.33
2022-12-04T07:57:29.658Z,4.43
2022-12-04T07:58:33.894Z,4.55
2022-12-04T07:59:37.307Z,4.53
2022-12-04T08:00:40.336Z,4.52
2022-12-04T08:01:43.344Z,4.47
2022-12-04T08:02:46.289Z,4.52
2022-12-04T08:03:51.835Z,4.59
2022-12-04T08:04:54.935Z,4.61
2022-12-04T08:06:03.252Z,4.67
2022-12-04T08:07:06.277Z,4.65
2022-12-04T08:08:09.190Z,4.65
2022-12-04T08:09:12.201Z,4.72
2022-12-04T08:10:15.498Z,4.70
2022-12-04T08:11:22.655Z,4.65
2022-12-04T08:12:25.469Z,4.75
2022-12-04T08:13:28.239Z,4.81
2022-12-04T08:14:31.049Z,4.73
2022-12-04T08:15:35.217Z,4.72
2022-12-04T08:16:38.415Z,4.74
2022-12-04T08:17:41.356Z,4.77
2022-12-04T08:18:48.800Z,4.86
2022-12-04T08:19:51.599Z,4.83
2022-12-04T08:20:54.439Z,4.79
2022-12-04T08:21:58.200Z,4.71
2022-12-04T08:23:00.883Z,4.70
2022-12-04T08:24:03.769Z,4.68
2022-12-04T08:25:06.630Z,4.72
2022-12-04T08:26:10.729Z,4.81
2022-12-04T08:27:13.598Z,4.88
2022-12-04T08:28:18.043Z,4.87
2022-12-04T08:29:20.774Z,4.87
2022-12-04T08:30:23.608Z,4.83
2022-12-04T08:31:29.547Z,4.81
2022-12-04T08:32:33.774Z,4.77
2022-12-04T08:33:36.767Z,4.77
2022-12-04T08:34:39.574Z,4.83
2022-12-04T08:35:42.432Z,4.78
2022-12-04T08:36:45.303Z,4.84
2022-12-04T08:37:48.137Z,4.89
2022-12-04T08:38:51.488Z,4.90
2022-12-04T08:39:54.791Z,4.92
2022-12-04T08:41:06.500Z,5.02
2022-12-04T08:42:09.407Z,4.99
2022-12-04T08:43:12.311Z,5.02
2022-12-04T08:44:15.281Z,5.07
2022-12-04T08:45:18.187Z,5.09
2022-12-04T08:46:21.853Z,5.15
2022-12-04T08:47:24.895Z,5.24
2022-12-04T08:48:28.168Z,5.23
2022-12-04T08:49:31.057Z,5.29
2022-12-04T08:50:33.961Z,5.30
2022-12-04T08:51:37.008Z,5.24
2022-12-04T08:52:39.950Z,5.29
2022-12-04T08:53:43.068Z,5.39
2022-12-04T08:54:46.021Z,5.35
2022-12-04T08:55:49.688Z,5.34
2022-12-04T08:56:52.882Z,5.37
2022-12-04T08:57:55.878Z,5.37
2022-12-04T08:59:00.264Z,5.40
2022-12-04T09:00:03.922Z,5.38
2022-12-04T09:01:10.295Z,5.45
2022-12-04T09:02:13.869Z,5.42
2022-12-04T09:03:19.400Z,5.48
2022-12-04T09:04:22.578Z,5.48
2022-12-04T09:05:29.024Z,5.41
2022-12-04T09:06:32.717Z,5.37
2022-12-04T09:07:39.364Z,5.39
2022-12-04T09:08:43.723Z,5.39
2022-12-04T09:09:48.432Z,5.42
2022-12-04T09:10:52.630Z,5.39
2022-12-04T09:11:56.319Z,5.42
2022-12-04T09:12:59.768Z,5.42
2022-12-04T09:14:04.093Z,5.42
2022-12-04T09:15:09.185Z,5.41
2022-12-04T09:16:18.348Z,5.40
2022-12-04T09:17:21.665Z,5.41
2022-12-04T09:18:24.750Z,5.39
2022-12-04T09:19:28.147Z,5.39
2022-12-04T09:20:31.618Z,5.40
2022-12-04T09:21:34.910Z,5.42
2022-12-04T09:23:02.927Z,5.47
2022-12-04T09:24:04.746Z,5.52
2022-12-04T09:25:12.607Z,5.41
2022-12-04T09:26:30.712Z,5.38
2022-12-04T09:27:42.099Z,5.40
2022-12-04T09:28:46.392Z,5.52
2022-12-04T09:29:49.813Z,5.49
2022-12-04T09:31:05.915Z,5.50
2022-12-04T09:32:12.274Z,5.50
2022-12-04T09:33:17.519Z,5.45
2022-12-04T09:34:21.023Z,5.47
2022-12-04T09:35:24.590Z,5.42
2022-12-04T09:36:28.018Z,5.47
2022-12-04T09:37:32.750Z,5.54
2022-12-04T09:38:36.213Z,5.52
2022-12-04T09:39:39.727Z,5.55
2022-12-04T09:41:05.462Z,5.54
2022-12-04T09:42:26.209Z,5.56
2022-12-04T09:43:42.906Z,5.66
2022-12-04T09:45:05.118Z,5.67
2022-12-04T09:46:19.279Z,5.69
2022-12-04T09:47:29.616Z,5.75
2022-12-04T09:48:38.474Z,5.69
2022-12-04T09:49:42.910Z,5.70
2022-12-04T09:50:50.797Z,5.78
2022-12-04T09:51:58.148Z,5.88
2022-12-04T09:53:20.516Z,5.94
2022-12-04T09:54:30.021Z,5.95
2022-12-04T09:56:11.318Z,6.05
2022-12-04T09:57:28.379Z,6.02
2022-12-04T09:58:53.556Z,5.96
2022-12-04T10:00:02.059Z,5.93
2022-12-04T10:01:06.372Z,5.99
2022-12-04T10:02:09.976Z,6.04
2022-12-04T10:03:17.428Z,6.02
2022-12-04T10:04:21.041Z,6.04
2022-12-04T10:05:55.043Z,5.99
2022-12-04T10:07:20.693Z,5.98
2022-12-04T10:08:35.175Z,6.08
2022-12-04T10:10:12.854Z,6.08
2022-12-04T10:11:44.084Z,6.06
2022-12-04T10:13:08.797Z,6.12
2022-12-04T10:14:33.425Z,6.16
2022-12-04T10:16:00.525Z,6.08
2022-12-04T10:17:33.137Z,6.14
2022-12-04T10:18:57.717Z,6.10
2022-12-04T10:20:11.170Z,6.07
2022-12-04T10:21:40.146Z,6.06
2022-12-04T10:22:50.730Z,6.11
2022-12-04T10:24:10.298Z,6.28
2022-12-04T10:25:21.476Z,6.31
2022-12-04T10:26:33.804Z,6.30
2022-12-04T10:27:51.696Z,6.34
2022-12-04T10:29:02.513Z,6.41
2022-12-04T10:30:18.437Z,6.42
2022-12-04T10:31:21.502Z,6.52
2022-12-04T10:32:29.673Z,6.56
2022-12-04T10:33:45.432Z,6.58
2022-12-04T10:34:51.596Z,6.58
2022-12-04T10:35:54.808Z,6.61
2022-12-04T10:37:04.751Z,6.65
2022-12-04T10:38:19.126Z,6.60
2022-12-04T10:39:27.541Z,6.70
2022-12-04T10:40:38.111Z,6.65
2022-12-04T10:41:48.245Z,6.60
2022-12-04T10:43:14.993Z,6.76
2022-12-04T10:44:23.747Z,6.83
2022-12-04T10:45:26.895Z,6.80
2022-12-04T10:46:33.228Z,6.80
2022-12-04T10:47:37.714Z,6.85
2022-12-04T10:48:42.077Z,6.90
2022-12-04T10:49:44.962Z,6.92
2022-12-04T10:50:47.770Z,6.88
2022-12-04T10:51:50.967Z,6.95
2022-12-04T10:52:53.687Z,6.95
2022-12-04T10:53:57.192Z,7.01
2022-12-04T10:55:01.412Z,7.00
2022-12-04T10:56:18.300Z,6.99
2022-12-04T10:57:21.107Z,6.95
2022-12-04T10:58:25.585Z,6.98
2022-12-04T10:59:29.638Z,6.98
2022-12-04T11:00:48.120Z,7.01
2022-12-04T11:02:03.130Z,7.06
2022-12-04T11:03:22.727Z,6.98
2022-12-04T11:04:31.147Z,7.00
2022-12-04T11:05:44.369Z,6.95
2022-12-04T11:06:50.107Z,7.02
2022-12-04T11:07:55.144Z,7.04
2022-12-04T11:09:00.125Z,7.06
2022-12-04T11:10:07.637Z,7.05
2022-12-04T11:11:15.288Z,7.07
2022-12-04T11:12:21.323Z,7.15
2022-12-04T11:13:24.637Z,7.07
2022-12-04T11:14:30.767Z,7.06
2022-12-04T11:15:46.385Z,7.08
2022-12-04T11:17:01.120Z,7.07
2022-12-04T11:18:16.343Z,7.05
2022-12-04T11:19:28.108Z,7.07
2022-12-04T11:20:31.292Z,7.14
2022-12-04T11:21:34.686Z,7.09
2022-12-04T11:22:53.159Z,7.19
2022-12-04T11:23:56.782Z,7.09
2022-12-04T11:25:00.322Z,7.12
2022-12-04T11:26:06.105Z,7.14
2022-12-04T11:27:21.285Z,7.07
2022-12-04T11:28:43.207Z,7.08
2022-12-04T11:29:46.984Z,7.05
2022-12-04T11:30:55.187Z,7.13
2022-12-04T11:32:05.585Z,7.14
2022-12-04T11:33:30.522Z,7.03
2022-12-04T11:34:39.502Z,7.04
2022-12-04T11:35:43.231Z,7.10
2022-12-04T11:36:53.212Z,7.06
2022-12-04T11:38:02.204Z,7.04
2022-12-04T11:39:38.199Z,7.05
2022-12-04T11:40:49.318Z,7.07
2022-12-04T11:42:20.786Z,7.03
2022-12-04T11:43:33.339Z,7.13
2022-12-04T11:44:37.066Z,7.13
2022-12-04T11:45:40.304Z,7.11
2022-12-04T11:46:53.783Z,7.11
2022-12-04T11:48:03.635Z,7.17
2022-12-04T11:49:22.346Z,7.13
2022-12-04T11:50:38.674Z,7.09
2022-12-04T11:52:19.179Z,7.21
2022-12-04T11:53:51.730Z,7.26
2022-12-04T11:55:22.449Z,7.19
2022-12-04T11:56:35.716Z,7.19
2022-12-04T11:58:02.449Z,7.12
2022-12-04T11:59:08.107Z,7.08
2022-12-04T12:00:20.828Z,7.18
2022-12-04T12:01:50.959Z,7.22
2022-12-04T12:03:08.452Z,7.15
2022-12-04T12:04:38.520Z,7.15
2022-12-04T12:06:09.928Z,7.12
2022-12-04T12:07:25.046Z,7.06
2022-12-04T12:08:40.993Z,7.02
2022-12-04T12:10:04.520Z,7.09
2022-12-04T12:11:23.025Z,7.26
2022-12-04T12:12:43.819Z,7.27
2022-12-04T12:14:19.949Z,7.23
2022-12-04T12:15:47.380Z,7.18
2022-12-04T12:17:22.161Z,7.27
2022-12-04T12:18:28.101Z,7.24
2022-12-04T12:19:53.771Z,7.19
2022-12-04T12:21:05.768Z,7.26
2022-12-04T12:22:36.608Z,7.25
2022-12-04T12:23:56.692Z,7.21
2022-12-04T12:25:11.897Z,7.31
2022-12-04T12:26:17.670Z,7.28
2022-12-04T12:27:51.797Z,7.25
2022-12-04T12:29:11.071Z,7.34
2022-12-04T12:30:21.640Z,7.29
2022-12-04T12:32:02.509Z,7.23
2022-12-04T12:33:12.055Z,7.28
2022-12-04T12:34:38.502Z,7.31
2022-12-04T12:36:03.347Z,7.29
2022-12-04T12:37:11.712Z,7.20
2022-12-04T12:38:48.616Z,7.21
2022-12-04T12:40:03.812Z,7.21
2022-12-04T12:41:45.326Z,7.17
2022-12-04T12:43:24.329Z,7.18
2022-12-04T12:44:31.060Z,7.07
2022-12-04T12:45:55.933Z,7.08
2022-12-04T12:47:09.958Z,7.10
2022-12-04T12:48:24.323Z,7.08
2022-12-04T12:49:42.065Z,7.20
2022-12-04T12:51:09.050Z,7.17
2022-12-04T12:52:35.339Z,7.10
2022-12-04T12:53:43.500Z,7.13
2022-12-04T12:54:56.397Z,7.12
2022-12-04T12:56:04.450Z,7.12
2022-12-04T12:57:19.406Z,7.06
2022-12-04T12:58:40.516Z,7.09
2022-12-04T13:00:15.900Z,7.09
2022-12-04T13:01:39.266Z,7.05
2022-12-04T13:03:06.881Z,7.15
2022-12-04T13:04:32.024Z,7.08
2022-12-04T13:05:43.910Z,7.05
2022-12-04T13:07:04.916Z,7.09
2022-12-04T13:08:47.877Z,7.21
2022-12-04T13:10:00.420Z,7.20
2022-12-04T13:11:21.398Z,7.18
2022-12-04T13:12:25.282Z,7.16
2022-12-04T13:13:32.784Z,7.32
2022-12-04T13:14:36.000Z,7.36
2022-12-04T13:15:44.832Z,7.32
2022-12-04T13:16:53.138Z,7.28
2022-12-04T13:17:57.883Z,7.30
2022-12-04T13:19:34.696Z,7.33
2022-12-04T13:20:49.733Z,7.27
2022-12-04T13:22:11.563Z,7.32
2022-12-04T13:23:37.693Z,7.27
2022-12-04T13:24:49.764Z,7.28
2022-12-04T13:26:06.733Z,7.26
2022-12-04T13:27:37.448Z,7.22
2022-12-04T13:29:09.891Z,7.14
2022-12-04T13:30:25.457Z,7.13
2022-12-04T13:31:42.911Z,7.10
2022-12-04T13:33:07.495Z,7.10
2022-12-04T13:34:39.297Z,7.06
2022-12-04T13:36:17.372Z,7.00
2022-12-04T13:37:47.713Z,7.00
2022-12-04T13:38:59.774Z,6.88
2022-12-04T13:40:29.447Z,6.88
2022-12-04T13:41:35.992Z,6.86
2022-12-04T13:42:39.045Z,6.86
2022-12-04T13:43:42.824Z,6.94
2022-12-04T13:44:54.877Z,6.99
2022-12-04T13:46:02.112Z,6.97
2022-12-04T13:47:08.427Z,6.87
2022-12-04T13:48:11.266Z,6.84
2022-12-04T13:49:20.292Z,6.90
2022-12-04T13:50:31.572Z,6.87
2022-12-04T13:51:45.185Z,6.76
2022-12-04T13:52:49.675Z,6.73
2022-12-04T13:54:24.326Z,6.67
2022-12-04T13:55:37.154Z,6.64
2022-12-04T13:56:41.866Z,6.60
2022-12-04T13:58:03.917Z,6.65
2022-12-04T13:59:26.810Z,6.62
2022-12-04T14:00:35.591Z,6.55
2022-12-04T14:01:41.405Z,6.60
2022-12-04T14:02:52.355Z,6.60
2022-12-04T14:03:57.703Z,6.61
2022-12-04T14:05:12.188Z,6.60
2022-12-04T14:06:44.276Z,6.74
2022-12-04T14:08:09.979Z,6.60
2022-12-04T14:09:25.228Z,6.55
2022-12-04T14:10:33.382Z,6.50
2022-12-04T14:11:47.301Z,6.56
2022-12-04T14:13:00.965Z,6.57
2022-12-04T14:14:08.149Z,6.52
2022-12-04T14:15:23.141Z,6.48
2022-12-04T14:16:29.591Z,6.52
2022-12-04T14:17:37.269Z,6.47
2022-12-04T14:18:40.531Z,6.41
2022-12-04T14:19:47.603Z,6.41
2022-12-04T14:21:00.739Z,6.40
2022-12-04T14:22:04.613Z,6.48
2022-12-04T14:23:16.727Z,6.53
2022-12-04T14:24:38.618Z,6.55
2022-12-04T14:25:42.485Z,6.55
2022-12-04T14:27:10.647Z,6.53
2022-12-04T14:28:31.018Z,6.62
2022-12-04T14:29:47.906Z,6.50
2022-12-04T14:31:08.960Z,6.44
2022-12-04T14:32:24.073Z,6.32
2022-12-04T14:33:30.934Z,6.34
2022-12-04T14:34:36.844Z,6.31
2022-12-04T14:36:06.928Z,6.34
2022-12-04T14:37:23.566Z,6.39
2022-12-04T14:38:26.769Z,6.50
2022-12-04T14:39:33.449Z,6.41
2022-12-04T14:41:06.205Z,6.43
2022-12-04T14:42:22.832Z,6.36
2022-12-04T14:43:41.447Z,6.30
2022-12-04T14:44:47.184Z,6.37
2022-12-04T14:46:10.928Z,6.47
2022-12-04T14:47:48.011Z,6.46
2022-12-04T14:49:23.398Z,6.30
2022-12-04T14:50:39.659Z,6.29
2022-12-04T14:52:04.013Z,6.20
2022-12-04T14:53:16.137Z,6.22
2022-12-04T14:54:32.886Z,6.19
2022-12-04T14:56:06.067Z,6.32
2022-12-04T14:57:19.929Z,6.26
2022-12-04T14:58:34.953Z,6.23
2022-12-04T14:59:54.429Z,6.20
2022-12-04T15:01:00.189Z,6.22
2022-12-04T15:02:04.880Z,6.16
2022-12-04T15:03:13.607Z,6.23
2022-12-04T15:04:26.180Z,6.31
2022-12-04T15:05:31.783Z,6.25
2022-12-04T15:06:35.172Z,6.16
2022-12-04T15:07:49.655Z,6.12
2022-12-04T15:09:18.511Z,6.25
2022-12-04T15:10:47.281Z,6.33
2022-12-04T15:12:17.336Z,6.18
2022-12-04T15:13:35.406Z,6.06
2022-12-04T15:14:49.101Z,6.07
2022-12-04T15:15:52.496Z,6.08
2022-12-04T15:17:04.463Z,6.07
2022-12-04T15:18:10.210Z,6.18
2022-12-04T15:19:22.822Z,6.13
2022-12-04T15:20:31.293Z,6.11
2022-12-04T15:21:41.854Z,6.09
2022-12-04T15:22:45.808Z,6.14
2022-12-04T15:23:50.319Z,6.14
2022-12-04T15:24:55.476Z,6.17
2022-12-04T15:26:03.696Z,6.16
2022-12-04T15:27:07.683Z,6.11
2022-12-04T15:28:23.620Z,6.13
2022-12-04T15:29:33.198Z,6.18
2022-12-04T15:30:39.678Z,6.24
2022-12-04T15:31:49.384Z,6.20
2022-12-04T15:32:54.345Z,6.12
2022-12-04T15:34:03.624Z,6.13
2022-12-04T15:35:11.271Z,6.22